Time;durP1;ratioP1;P1;durP2;ratioP2;P2;SDS_P1;SDS_P2;PMS_P1;PMS_P2;Temp;Humidity;BMP_temperature;BMP_pressure;BME280_temperature;BME280_humidity;BME280_pressure;Samples;Min_cycle;Max_cycle;Signal;HPM_P1;HPM_P2
2021/12/15 00:01:48;;;;;;;47.35;26.88;;;;;;;5.82;100.00;101274.88;10507514;28;20079;-81
2021/12/15 00:06:52;;;;;;;41.83;27.10;;;;;;;5.85;99.20;101264.47;10528636;28;20052;-80
2021/12/15 00:11:54;;;;;;;41.83;25.52;;;;;;;5.64;100.00;101264.28;10550257;28;20322;-80
2021/12/15 00:16:56;;;;;;;42.03;26.02;;;;;;;5.65;100.00;101273.88;10530340;28;20147;-81
2021/12/15 00:21:58;;;;;;;42.05;24.88;;;;;;;5.56;100.00;101259.88;10527238;28;20048;-81
2021/12/15 00:27:00;;;;;;;39.45;25.23;;;;;;;5.60;100.00;101267.75;10529131;28;20040;-83
2021/12/15 00:32:04;;;;;;;43.85;24.80;;;;;;;5.67;100.00;101265.19;10526747;28;20056;-80
2021/12/15 00:37:06;;;;;;;40.83;24.73;;;;;;;5.79;100.00;101256.56;10526807;28;20049;-81
2021/12/15 00:42:09;;;;;;;36.22;25.98;;;;;;;5.81;99.69;101263.56;10527007;28;20494;-82
2021/12/15 00:47:11;;;;;;;40.95;25.10;;;;;;;5.62;100.00;101264.25;10519406;28;20048;-80
2021/12/15 00:52:13;;;;;;;47.58;25.35;;;;;;;5.53;100.00;101269.41;10520885;28;20048;-80
2021/12/15 00:57:15;;;;;;;33.65;23.58;;;;;;;5.52;100.00;101272.88;10510181;28;20053;-81
2021/12/15 01:02:17;;;;;;;37.67;22.27;;;;;;;5.53;100.00;101277.22;10528365;28;20044;-80
2021/12/15 01:07:20;;;;;;;24.52;20.90;;;;;;;5.52;100.00;101272.88;10542274;28;20045;-80
2021/12/15 01:23:27;;;;;;;21.40;19.15;;;;;;;5.55;100.00;101286.81;10508726;28;20045;-81
2021/12/15 01:28:30;;;;;;;18.90;17.20;;;;;;;5.86;96.01;101297.53;10509292;28;20049;-79
2021/12/15 01:33:34;;;;;;;19.27;17.25;;;;;;;5.81;95.30;101301.84;10533303;28;20043;-81
2021/12/15 01:38:39;;;;;;;17.00;15.30;;;;;;;5.90;95.58;101311.47;10531311;28;20044;-81
2021/12/15 01:49:05;;;;;;;18.05;14.57;;;;;;;5.80;93.98;101307.91;10537674;28;20478;-80
2021/12/15 01:54:07;;;;;;;17.85;16.15;;;;;;;5.73;94.74;101308.72;10533742;28;20046;-80
2021/12/15 01:59:11;;;;;;;17.88;16.00;;;;;;;5.77;94.13;101316.59;10516755;28;20067;-81
2021/12/15 02:04:16;;;;;;;14.40;13.02;;;;;;;6.11;91.77;101311.66;10511048;28;20075;-81
2021/12/15 02:09:53;;;;;;;14.55;13.15;;;;;;;6.07;91.49;101302.94;10509940;28;20051;-81
2021/12/15 02:14:52;;;;;;;14.65;13.30;;;;;;;6.22;89.58;101299.53;10507715;28;20140;-82
2021/12/15 02:19:54;;;;;;;13.93;12.73;;;;;;;6.12;89.52;101295.13;10508942;28;20094;-81
2021/12/15 02:24:56;;;;;;;14.80;13.60;;;;;;;6.07;89.55;101296.84;10508067;28;20074;-81
2021/12/15 02:30:05;;;;;;;13.52;12.43;;;;;;;6.15;88.66;101291.66;10508043;28;20071;-81
2021/12/15 02:37:14;;;;;;;13.32;12.10;;;;;;;6.03;89.23;101290.72;10514231;28;20526;-81
2021/12/15 02:40:30;;;;;;;12.90;11.80;;;;;;;5.96;89.65;101296.75;10533749;28;20123;-80
2021/12/15 02:45:32;;;;;;;12.45;11.35;;;;;;;6.10;88.39;101303.81;10516654;22;20049;-81
2021/12/15 02:50:36;;;;;;;12.43;11.30;;;;;;;6.04;88.48;101310.72;10470404;28;20056;-82
2021/12/15 02:55:38;;;;;;;12.50;11.40;;;;;;;5.88;89.25;101315.78;10470899;28;20051;-82
2021/12/15 03:00:51;;;;;;;12.63;11.43;;;;;;;5.77;90.56;101313.09;10453595;28;20120;-82
2021/12/15 03:06:05;;;;;;;10.50;9.60;;;;;;;6.22;87.82;101319.56;10483718;28;20049;-82
2021/12/15 03:16:27;;;;;;;9.82;8.93;;;;;;;6.08;87.63;101327.28;10474354;28;20064;-82
2021/12/15 03:21:29;;;;;;;9.23;8.43;;;;;;;6.28;85.51;101324.81;10469068;28;20049;-82
2021/12/15 03:26:39;;;;;;;8.43;7.68;;;;;;;6.36;84.53;101325.72;10453130;28;20049;-82
2021/12/15 03:42:06;;;;;;;10.18;9.18;;;;;;;6.05;86.74;101346.41;10485439;28;20079;-82
2021/12/15 03:47:13;;;;;;;8.70;8.00;;;;;;;6.17;85.74;101353.47;10485268;28;20045;-82
2021/12/15 03:52:15;;;;;;;8.30;7.40;;;;;;;6.30;85.58;101359.66;10478185;28;20049;-82
2021/12/15 03:57:18;;;;;;;8.13;7.38;;;;;;;6.25;86.10;101357.00;10464705;28;20117;-82
2021/12/15 04:02:20;;;;;;;9.20;7.97;;;;;;;6.16;85.94;101353.47;10447078;28;20071;-81
2021/12/15 04:07:23;;;;;;;8.85;7.97;;;;;;;6.31;84.22;101350.94;10448944;28;20048;-82
2021/12/15 04:12:25;;;;;;;8.68;7.93;;;;;;;6.39;83.35;101340.56;10466734;28;20045;-81
2021/12/15 04:17:28;;;;;;;7.97;7.28;;;;;;;6.25;83.93;101343.97;10483738;28;20056;-81
2021/12/15 04:22:30;;;;;;;7.45;6.82;;;;;;;6.07;85.29;101349.06;10500994;28;20071;-81
2021/12/15 04:27:32;;;;;;;7.78;7.18;;;;;;;5.90;85.64;101359.31;10481521;28;20135;-82
2021/12/15 04:32:40;;;;;;;7.95;7.25;;;;;;;5.78;86.50;101362.69;10478749;28;20505;-82
2021/12/15 04:37:45;;;;;;;7.13;6.50;;;;;;;5.89;86.03;101365.41;10459929;28;20057;-82
2021/12/15 04:42:47;;;;;;;7.25;6.65;;;;;;;5.75;85.98;101367.00;10478866;28;20044;-82
2021/12/15 04:47:51;;;;;;;7.50;6.80;;;;;;;5.94;84.08;101366.34;10451538;28;20417;-82
2021/12/15 04:52:54;;;;;;;7.90;7.20;;;;;;;6.15;81.53;101376.06;10457532;28;20484;-81
2021/12/15 04:57:57;;;;;;;9.02;8.07;;;;;;;6.26;80.54;101370.94;10456288;28;20045;-82
2021/12/15 05:02:59;;;;;;;8.13;7.43;;;;;;;6.08;81.95;101361.22;10439665;28;20067;-82
2021/12/15 05:08:02;;;;;;;8.35;7.65;;;;;;;6.03;82.53;101365.53;10456452;28;20037;-81
2021/12/15 05:13:05;;;;;;;7.57;6.90;;;;;;;6.00;82.86;101357.69;10456504;28;20045;-81
2021/12/15 05:18:10;;;;;;;8.50;7.80;;;;;;;6.13;82.13;101363.88;10506088;28;20041;-83
2021/12/15 05:23:14;;;;;;;7.80;7.15;;;;;;;5.99;82.90;101354.19;10492574;28;20041;-82
2021/12/15 05:28:16;;;;;;;8.35;7.65;;;;;;;6.04;82.98;101357.72;10457873;28;20071;-83
2021/12/15 05:33:17;;;;;;;8.98;8.27;;;;;;;5.96;83.70;101358.50;10457145;28;20443;-83
2021/12/15 05:38:21;;;;;;;9.40;8.60;;;;;;;5.94;83.84;101357.66;10455284;28;20048;-83
2021/12/15 05:43:23;;;;;;;9.38;8.57;;;;;;;5.97;83.44;101381.13;10471842;28;20049;-83
2021/12/15 05:48:24;;;;;;;8.43;7.72;;;;;;;5.97;83.44;101374.19;10454870;28;20053;-83
2021/12/15 05:53:26;;;;;;;9.35;8.43;;;;;;;5.89;85.01;101377.56;10453218;28;20406;-83
2021/12/15 05:58:30;;;;;;;10.25;9.45;;;;;;;6.02;84.96;101382.03;10472908;28;20120;-83
2021/12/15 06:03:33;;;;;;;10.20;9.30;;;;;;;6.05;84.84;101392.53;10453427;28;20526;-83
2021/12/15 06:08:35;;;;;;;9.18;8.38;;;;;;;6.06;84.69;101395.16;10453454;28;20045;-83
2021/12/15 06:13:37;;;;;;;9.60;8.77;;;;;;;5.89;86.11;101388.88;10454498;28;20112;-84
2021/12/15 06:18:39;;;;;;;8.77;8.07;;;;;;;6.09;85.19;101385.59;10472227;28;20518;-83
2021/12/15 06:23:41;;;;;;;8.98;8.27;;;;;;;5.95;86.08;101398.53;10469814;28;20445;-83
2021/12/15 06:28:44;;;;;;;8.00;7.30;;;;;;;5.99;85.67;101397.69;10470430;28;20045;-83
2021/12/15 06:33:46;;;;;;;7.90;7.20;;;;;;;6.02;85.66;101401.22;10471869;28;20041;-83
2021/12/15 06:38:51;;;;;;;7.95;7.32;;;;;;;6.14;85.33;101408.25;10447913;28;20053;-83
2021/12/15 06:43:56;;;;;;;7.63;6.93;;;;;;;6.30;84.88;101414.50;10448859;28;20044;-83
2021/12/15 06:59:40;;;;;;;6.75;6.25;;;;;;;6.23;85.22;101423.13;10484137;28;20113;-82
2021/12/15 07:04:42;;;;;;;7.20;6.55;;;;;;;6.38;84.67;101422.41;10461346;28;20033;-82
2021/12/15 07:09:44;;;;;;;6.95;6.35;;;;;;;6.26;85.39;101423.16;10460733;28;20052;-82
2021/12/15 07:14:46;;;;;;;7.25;6.65;;;;;;;6.07;86.74;101424.75;10462719;28;20037;-82
2021/12/15 07:20:28;;;;;;;7.60;6.90;;;;;;;5.94;88.00;101434.19;10460612;28;20116;-82
2021/12/15 07:25:15;;;;;;;8.15;7.43;;;;;;;6.05;87.00;101437.78;10472474;28;20503;-81
2021/12/15 07:30:17;;;;;;;8.00;7.30;;;;;;;6.35;86.35;101438.03;10475044;28;20079;-82
2021/12/15 07:35:20;;;;;;;8.40;7.60;;;;;;;6.22;85.99;101437.06;10475720;28;20037;-82
2021/12/15 07:40:25;;;;;;;11.05;8.63;;;;;;;5.93;88.65;101442.91;10476284;28;20065;-82
2021/12/15 07:45:28;;;;;;;9.55;8.75;;;;;;;5.91;88.57;101449.78;10458798;28;20037;-80
2021/12/15 07:50:33;;;;;;;9.50;8.13;;;;;;;5.92;89.36;101446.34;10458620;28;20043;-81
2021/12/15 07:55:35;;;;;;;8.07;7.32;;;;;;;6.22;88.15;101447.50;10454901;28;20048;-79
2021/12/15 08:00:42;;;;;;;7.45;6.80;;;;;;;6.07;88.69;101453.47;10477800;28;20072;-82
2021/12/15 08:05:46;;;;;;;8.80;8.10;;;;;;;6.11;89.14;101459.56;10474456;28;20041;-82
2021/12/15 08:10:49;;;;;;;8.25;7.57;;;;;;;6.20;88.42;101467.50;10452556;28;20063;-82
2021/12/15 08:15:51;;;;;;;7.95;7.30;;;;;;;6.26;88.46;101457.97;10471049;28;20048;-81
2021/12/15 08:20:53;;;;;;;7.63;6.35;;;;;;;6.23;89.38;101472.75;10455101;28;20065;-81
2021/12/15 08:25:55;;;;;;;7.28;6.68;;;;;;;6.36;88.82;101464.16;10454779;28;20041;-82
2021/12/15 08:30:59;;;;;;;7.07;6.47;;;;;;;6.82;85.76;101473.22;10478569;28;20100;-82
2021/12/15 08:36:06;;;;;;;6.63;6.03;;;;;;;6.86;85.42;101463.63;10470116;28;20124;-82
2021/12/15 08:41:15;;;;;;;6.80;6.20;;;;;;;6.68;86.27;101467.00;10457147;28;20482;-81
2021/12/15 08:46:27;;;;;;;5.63;4.95;;;;;;;6.51;86.61;101459.06;10497717;22;20041;-84
2021/12/15 08:51:31;;;;;;;4.90;4.50;;;;;;;6.85;84.83;101459.28;10462895;28;20052;-81
2021/12/15 08:56:33;;;;;;;4.82;4.43;;;;;;;7.00;83.92;101467.22;10474477;28;20139;-81
2021/12/15 09:01:36;;;;;;;4.60;4.20;;;;;;;7.12;82.63;101458.56;10474748;28;20051;-80
2021/12/15 09:06:39;;;;;;;5.18;4.78;;;;;;;7.31;81.23;101457.81;10456825;28;20044;-81
2021/12/15 09:11:42;;;;;;;5.38;4.90;;;;;;;7.26;82.57;101456.91;10455751;28;20140;-82
2021/12/15 09:16:49;;;;;;;5.07;4.68;;;;;;;7.16;83.18;101462.06;10458556;28;20080;-81
2021/12/15 09:21:52;;;;;;;6.10;4.93;;;;;;;7.33;82.64;101463.91;10475509;28;20056;-80
2021/12/15 09:26:55;;;;;;;4.78;4.38;;;;;;;7.33;82.65;101466.50;10459169;28;20041;-81
2021/12/15 09:31:57;;;;;;;5.10;4.70;;;;;;;7.49;82.00;101457.00;10490848;28;20398;-82
2021/12/15 09:37:02;;;;;;;4.80;4.40;;;;;;;7.59;81.17;101461.38;10457834;28;20053;-82
2021/12/15 09:42:04;;;;;;;5.82;5.38;;;;;;;7.70;80.66;101455.28;10458516;28;20422;-83
2021/12/15 10:02:55;;;;;;;5.45;4.95;;;;;;;7.69;82.59;101464.91;10472723;28;20037;-82
2021/12/15 10:18:50;;;;;;;5.10;4.68;;;;;;;8.06;80.44;101455.41;10470633;28;20410;-84
2021/12/15 10:23:53;;;;;;;4.38;3.97;;;;;;;8.09;80.16;101463.22;10458759;28;20478;-82
2021/12/15 10:28:55;;;;;;;5.03;4.63;;;;;;;8.21;79.49;101462.38;10461138;28;20074;-80
2021/12/15 10:34:00;;;;;;;5.82;4.43;;;;;;;8.15;79.70;101451.91;10473937;28;20109;-80
2021/12/15 10:39:07;;;;;;;4.72;4.25;;;;;;;8.13;79.61;101445.78;10497454;28;20052;-79
2021/12/15 10:44:24;;;;;;;4.40;4.05;;;;;;;8.02;80.93;101443.16;10473021;28;20097;-78
2021/12/15 10:49:32;;;;;;;4.83;4.43;;;;;;;8.16;80.30;101440.56;10497611;28;20052;-79
2021/12/15 10:54:35;;;;;;;5.25;4.80;;;;;;;8.08;80.66;101447.53;10488075;28;20784;-79
2021/12/15 10:59:43;;;;;;;4.25;3.92;;;;;;;8.24;80.46;101453.66;10492142;28;20077;-83
2021/12/15 11:05:21;;;;;;;5.07;4.57;;;;;;;8.15;80.88;101448.41;10487511;28;20377;-79
2021/12/15 11:10:30;;;;;;;5.10;4.70;;;;;;;8.22;80.73;101452.78;10484454;28;20539;-78
2021/12/15 11:15:41;;;;;;;5.30;4.80;;;;;;;8.15;81.47;101451.03;10461576;28;20083;-81
2021/12/15 11:21:06;;;;;;;4.80;4.40;;;;;;;8.22;81.27;101452.78;10476726;28;20060;-80
2021/12/15 11:26:13;;;;;;;4.95;4.55;;;;;;;8.26;81.12;101442.28;10484310;28;20055;-79
2021/12/15 11:31:18;;;;;;;5.63;4.95;;;;;;;8.41;81.05;101445.81;10462924;28;20049;-80
2021/12/15 11:36:30;;;;;;;4.65;4.25;;;;;;;8.30;81.91;101438.81;10474277;28;20128;-82
2021/12/15 11:41:42;;;;;;;5.22;4.72;;;;;;;8.34;81.66;101444.94;10471985;28;20105;-81
2021/12/15 11:46:53;;;;;;;8.60;5.35;;;;;;;8.36;80.87;101437.91;10473646;28;20059;-79
2021/12/15 11:52:04;;;;;;;5.90;5.20;;;;;;;8.30;80.99;101430.94;10475045;28;20059;-81
2021/12/15 11:57:18;;;;;;;6.45;5.85;;;;;;;8.18;82.43;101430.06;10471449;28;20132;-82
2021/12/15 12:02:26;;;;;;;6.20;5.60;;;;;;;8.16;82.93;101437.94;10501076;28;20053;-82
2021/12/15 12:07:35;;;;;;;5.68;5.05;;;;;;;8.07;84.90;101448.41;10500225;28;20064;-81
2021/12/15 12:12:51;;;;;;;6.75;6.15;;;;;;;7.80;87.25;101442.25;10501719;28;20041;-82
2021/12/15 12:18:00;;;;;;;7.70;6.90;;;;;;;7.78;87.67;101436.13;10483921;28;20074;-81
2021/12/15 12:23:06;;;;;;;7.70;7.10;;;;;;;7.58;90.74;101443.94;10463083;28;20075;-81
2021/12/15 12:28:13;;;;;;;7.68;7.07;;;;;;;7.65;90.39;101433.47;10472753;28;20120;-79
2021/12/15 12:33:23;;;;;;;8.50;7.80;;;;;;;7.67;90.56;101434.38;10469581;28;20064;-82
2021/12/15 12:38:55;;;;;;;7.85;7.25;;;;;;;7.74;89.65;101441.34;10473577;28;20067;-80
2021/12/15 12:44:01;;;;;;;7.47;6.88;;;;;;;7.76;89.40;101430.03;10479797;28;20120;-79
2021/12/15 12:49:52;;;;;;;8.40;7.70;;;;;;;7.82;88.93;101432.66;10491195;28;20109;-84
2021/12/15 12:59:54;;;;;;;7.97;7.15;;;;;;;7.70;90.46;101429.13;10477663;28;20052;-81
2021/12/15 13:04:57;;;;;;;7.78;7.15;;;;;;;7.77;89.87;101431.75;10474301;28;20037;-81
2021/12/15 13:09:58;;;;;;;7.40;6.80;;;;;;;7.71;89.85;101421.28;10494437;28;20045;-81
2021/12/15 13:15:00;;;;;;;8.25;7.53;;;;;;;7.94;87.66;101426.56;10490742;28;20040;-83
2021/12/15 13:20:19;;;;;;;7.72;7.13;;;;;;;7.93;88.54;101408.25;10491596;28;20109;-81
2021/12/15 13:31:05;;;;;;;7.15;6.55;;;;;;;8.13;86.56;101423.97;10466698;28;20056;-81
2021/12/15 13:36:21;;;;;;;6.57;6.00;;;;;;;8.19;86.39;101429.19;10466870;28;20049;-82
2021/12/15 13:42:00;;;;;;;7.07;6.38;;;;;;;8.13;86.50;101427.44;10507708;28;20041;-81
2021/12/15 13:47:08;;;;;;;6.70;5.70;;;;;;;8.04;86.79;101428.31;10503662;28;20041;-82
2021/12/15 13:52:30;;;;;;;6.28;5.57;;;;;;;8.05;86.32;101423.94;10486332;28;20053;-82
2021/12/15 13:57:46;;;;;;;6.00;5.50;;;;;;;7.95;86.70;101430.06;10476050;28;20047;-82
2021/12/15 14:03:00;;;;;;;5.38;4.97;;;;;;;8.02;86.00;101427.44;10495686;28;20067;-82
2021/12/15 14:08:07;;;;;;;5.35;4.88;;;;;;;7.93;86.80;101434.44;10498036;28;20044;-80
2021/12/15 14:13:08;;;;;;;5.97;5.38;;;;;;;7.91;86.55;101430.91;10475739;28;20045;-80
2021/12/15 14:18:26;;;;;;;5.63;4.47;;;;;;;7.94;86.22;101438.78;10460200;28;20044;-82
2021/12/15 14:23:50;;;;;;;5.45;5.05;;;;;;;7.96;86.41;101437.03;10456085;28;20044;-81
2021/12/15 14:29:08;;;;;;;5.25;4.75;;;;;;;7.95;86.11;101433.53;10476999;28;20079;-82
2021/12/15 14:34:14;;;;;;;5.22;4.72;;;;;;;7.90;86.01;101439.66;10456289;28;20045;-82
2021/12/15 14:39:28;;;;;;;4.80;4.40;;;;;;;7.90;86.00;101434.41;10455005;28;20052;-81
2021/12/15 14:44:36;;;;;;;5.20;4.80;;;;;;;7.87;86.21;101437.03;10501247;22;20057;-85
2021/12/15 14:57:22;;;;;;;4.47;4.13;;;;;;;7.81;85.68;101443.13;10199512;29;20101;-84
2021/12/15 15:02:28;;;;;;;4.00;3.70;;;;;;;7.87;86.08;101455.34;10185551;29;20139;-84
2021/12/15 15:07:35;;;;;;;6.40;3.67;;;;;;;7.98;85.33;101456.25;10185496;29;20158;-82
2021/12/15 15:12:41;;;;;;;4.70;3.85;;;;;;;7.87;85.73;101464.06;10185168;29;20147;-82
2021/12/15 15:18:01;;;;;;;3.60;3.30;;;;;;;8.05;84.66;101458.84;10170094;29;20100;-83
2021/12/15 15:23:16;;;;;;;4.28;3.88;;;;;;;7.78;85.89;101475.38;10187621;29;20083;-82
2021/12/15 15:28:22;;;;;;;4.78;4.13;;;;;;;7.99;85.20;101481.56;10367082;28;20046;-82
2021/12/15 15:33:33;;;;;;;4.53;4.22;;;;;;;7.99;84.77;101471.97;10359330;28;20080;-83
2021/12/15 15:38:43;;;;;;;4.03;3.67;;;;;;;7.87;85.55;101471.91;10374837;28;20096;-82
2021/12/15 15:43:50;;;;;;;4.60;4.20;;;;;;;7.79;85.77;101479.78;10376370;28;20054;-81
2021/12/15 15:48:55;;;;;;;4.53;4.22;;;;;;;7.74;85.96;101483.22;10393755;28;20088;-82
2021/12/15 15:54:02;;;;;;;3.60;3.30;;;;;;;7.79;85.44;101481.50;10374133;28;20057;-85
2021/12/15 15:59:24;;;;;;;4.40;3.97;;;;;;;7.91;84.47;101491.13;10412922;28;20092;-84
2021/12/15 16:04:27;;;;;;;3.78;3.47;;;;;;;7.88;84.35;101484.16;10416030;28;20049;-82
2021/12/15 16:09:32;;;;;;;4.25;3.85;;;;;;;7.90;84.36;101490.25;10414934;28;20049;-83
2021/12/15 16:14:34;;;;;;;6.72;3.67;;;;;;;7.87;84.09;101489.38;10434232;28;20067;-81
2021/12/15 16:19:49;;;;;;;4.40;4.10;;;;;;;7.88;83.77;101486.78;10439868;28;20096;-82
2021/12/15 16:24:51;;;;;;;4.53;4.13;;;;;;;7.91;83.44;101488.50;10436960;28;20437;-83
2021/12/15 16:29:54;;;;;;;4.28;3.95;;;;;;;7.96;83.08;101489.41;10437121;28;20526;-82
2021/12/15 16:34:56;;;;;;;5.82;4.57;;;;;;;7.92;83.00;101490.25;10418972;28;20509;-82
2021/12/15 16:40:05;;;;;;;4.93;4.53;;;;;;;7.78;84.17;101498.06;10418540;28;20045;-83
2021/12/15 16:45:12;;;;;;;4.78;4.38;;;;;;;7.82;83.80;101498.09;10445686;28;20072;-81
2021/12/15 16:50:14;;;;;;;3.85;3.55;;;;;;;7.91;83.18;101499.00;10422067;28;20107;-82
2021/12/15 16:55:19;;;;;;;5.10;4.60;;;;;;;7.90;83.25;101495.50;10434108;28;20107;-81
2021/12/15 17:00:32;;;;;;;4.05;3.70;;;;;;;7.94;83.19;101494.63;10436220;28;20058;-83
2021/12/15 17:05:52;;;;;;;3.30;3.00;;;;;;;7.80;84.31;101502.47;10437029;28;20053;-82
2021/12/15 17:11:08;;;;;;;4.05;3.70;;;;;;;7.75;84.96;101495.47;10437819;28;20083;-83
2021/12/15 17:16:11;;;;;;;3.80;3.50;;;;;;;7.65;85.72;101499.78;10433495;28;20045;-82
2021/12/15 17:21:31;;;;;;;4.07;3.67;;;;;;;7.67;85.90;101503.28;10434896;28;20033;-81
2021/12/15 17:26:43;;;;;;;4.18;3.65;;;;;;;7.69;85.62;101504.16;10431687;28;20041;-82
2021/12/15 17:31:58;;;;;;;4.63;4.13;;;;;;;7.67;85.94;101505.91;10433542;28;20068;-81
2021/12/15 17:37:13;;;;;;;4.45;4.15;;;;;;;7.73;85.28;101508.53;10415057;28;20042;-79
2021/12/15 17:42:31;;;;;;;4.30;4.00;;;;;;;7.73;85.71;101518.13;10414128;28;20056;-82
2021/12/15 17:47:44;;;;;;;3.70;3.40;;;;;;;7.67;85.70;101521.59;10435498;28;20095;-81
2021/12/15 17:52:56;;;;;;;4.53;4.07;;;;;;;7.81;85.05;101522.53;10459079;28;20049;-83
2021/12/15 17:58:03;;;;;;;4.05;3.65;;;;;;;7.62;86.62;101525.97;10461992;28;20045;-82
2021/12/15 18:03:15;;;;;;;4.25;3.85;;;;;;;7.72;86.07;101521.63;10433639;28;20080;-80
2021/12/15 18:08:16;;;;;;;4.63;4.22;;;;;;;7.70;87.18;101515.50;10441790;28;20412;-81
2021/12/15 18:13:24;;;;;;;4.68;4.38;;;;;;;7.60;87.54;101522.44;10429553;28;20356;-81
2021/12/15 18:18:27;;;;;;;4.53;4.10;;;;;;;7.72;87.08;101506.78;10431750;28;20045;-82
2021/12/15 18:23:30;;;;;;;4.85;4.18;;;;;;;7.47;88.17;101511.03;10431335;28;20053;-82
2021/12/15 18:28:32;;;;;;;4.30;3.90;;;;;;;7.44;88.22;101518.03;10432086;28;20514;-82
2021/12/15 18:33:33;;;;;;;4.82;4.43;;;;;;;7.47;88.06;101511.03;10432159;28;20053;-82
2021/12/15 18:38:36;;;;;;;5.38;4.90;;;;;;;7.40;88.38;101516.25;10414771;28;20552;-81
2021/12/15 18:43:39;;;;;;;6.13;5.20;;;;;;;7.43;87.95;101511.03;10414578;28;20060;-82
2021/12/15 18:48:43;;;;;;;5.30;4.90;;;;;;;7.43;88.05;101511.91;10414285;28;20045;-82
2021/12/15 18:53:50;;;;;;;6.10;5.60;;;;;;;7.39;88.24;101520.59;10430615;28;20052;-82
2021/12/15 18:58:53;;;;;;;5.82;5.32;;;;;;;7.33;88.92;101523.19;10425805;28;20411;-81
2021/12/15 19:03:55;;;;;;;6.00;5.60;;;;;;;7.42;88.87;101533.69;10438905;28;20045;-83
2021/12/15 19:08:59;;;;;;;8.27;5.95;;;;;;;7.30;89.52;101528.38;10423857;28;20038;-81
2021/12/15 19:14:03;;;;;;;6.13;5.63;;;;;;;7.25;90.24;101528.38;10423990;28;20046;-82
2021/12/15 19:19:10;;;;;;;6.63;6.03;;;;;;;7.26;90.71;101530.16;10424698;28;20089;-82
2021/12/15 19:24:12;;;;;;;6.40;5.90;;;;;;;7.21;90.92;101537.06;10431986;28;20105;-79
2021/12/15 19:29:14;;;;;;;6.78;6.28;;;;;;;7.33;90.62;101533.66;10449853;28;20495;-82
2021/12/15 19:34:18;;;;;;;7.43;6.82;;;;;;;7.25;90.48;101541.44;10417865;28;20053;-82
2021/12/15 19:39:21;;;;;;;7.20;6.60;;;;;;;7.25;90.48;101548.41;10425849;28;20116;-83
2021/12/15 19:44:28;;;;;;;8.50;7.88;;;;;;;7.25;90.56;101551.91;10439018;28;20084;-82
2021/12/15 19:49:32;;;;;;;7.65;6.78;;;;;;;7.27;90.09;101560.66;10442207;28;20071;-81
2021/12/15 19:54:34;;;;;;;6.55;6.05;;;;;;;7.30;89.90;101565.91;10442745;28;20057;-82
2021/12/15 19:59:37;;;;;;;8.35;7.75;;;;;;;7.10;91.07;101561.41;10440029;28;20061;-82
2021/12/15 20:04:40;;;;;;;7.82;7.22;;;;;;;7.16;91.63;101579.75;10453114;28;20495;-82
2021/12/15 20:09:47;;;;;;;9.55;8.90;;;;;;;7.05;92.85;101574.47;10441178;28;20045;-84
2021/12/15 20:14:50;;;;;;;9.57;8.63;;;;;;;7.08;93.43;101579.69;10421176;28;20384;-83
2021/12/15 20:19:51;;;;;;;10.05;9.32;;;;;;;7.00;94.79;101578.78;10422058;28;20045;-82
2021/12/15 20:24:53;;;;;;;8.95;8.32;;;;;;;7.12;94.80;101585.81;10426601;28;20506;-83
2021/12/15 20:29:57;;;;;;;10.02;9.27;;;;;;;6.91;95.64;101578.72;10448499;28;20102;-83
2021/12/15 20:34:59;;;;;;;10.95;10.02;;;;;;;6.87;95.66;101580.41;10438424;28;20042;-84
2021/12/15 20:40:01;;;;;;;10.50;9.80;;;;;;;6.90;95.90;101592.63;10435842;28;20545;-83
2021/12/15 20:45:06;;;;;;;10.95;10.15;;;;;;;6.92;95.03;101580.47;10470057;22;20049;-82
2021/12/15 20:50:11;;;;;;;9.70;9.00;;;;;;;6.91;95.18;101582.19;10487484;28;20048;-82
2021/12/15 20:55:15;;;;;;;9.23;8.63;;;;;;;6.99;94.72;101583.09;10483323;28;20079;-81
2021/12/15 21:00:22;;;;;;;11.45;10.57;;;;;;;6.98;94.84;101589.22;10478938;28;20045;-82
2021/12/15 21:05:33;;;;;;;9.33;8.63;;;;;;;6.90;95.43;101588.25;10477068;28;20045;-83
2021/12/15 21:10:39;;;;;;;9.90;9.00;;;;;;;6.86;96.85;101602.16;10489697;28;20288;-82
2021/12/15 21:15:41;;;;;;;10.88;9.95;;;;;;;6.91;96.15;101597.00;10455031;28;20053;-82
2021/12/15 21:20:48;;;;;;;11.55;10.55;;;;;;;6.71;97.17;101596.81;10481723;28;20049;-82
2021/12/15 21:25:55;;;;;;;9.88;9.10;;;;;;;6.88;95.94;101587.38;10500155;28;20048;-82
2021/12/15 21:30:57;;;;;;;9.50;8.90;;;;;;;6.90;95.97;101588.25;10481140;28;20071;-82
2021/12/15 21:36:00;;;;;;;11.57;10.70;;;;;;;6.76;95.76;101579.44;10474262;28;20053;-81
2021/12/15 21:41:04;;;;;;;10.38;9.57;;;;;;;6.92;94.00;101572.63;10472638;28;20083;-81
2021/12/15 21:46:06;;;;;;;9.82;9.13;;;;;;;6.83;94.22;101563.81;10456679;28;20040;-81
2021/12/15 21:51:11;;;;;;;10.50;9.60;;;;;;;6.95;92.87;101555.22;10489035;28;20083;-81
2021/12/15 21:56:13;;;;;;;8.32;7.70;;;;;;;6.93;92.93;101558.66;10490681;28;20475;-80
2021/12/15 22:01:15;;;;;;;9.15;8.38;;;;;;;6.86;93.48;101547.28;10455840;28;20136;-81
2021/12/15 22:06:18;;;;;;;7.78;7.07;;;;;;;7.10;91.90;101551.81;10451784;28;20051;-81
2021/12/15 22:11:21;;;;;;;7.57;6.97;;;;;;;7.12;91.83;101543.97;10471339;28;20033;-82
2021/12/15 22:16:24;;;;;;;6.72;6.22;;;;;;;7.13;91.44;101535.25;10481071;28;20040;-82
2021/12/15 22:21:29;;;;;;;6.90;6.35;;;;;;;7.15;91.16;101536.16;10508147;28;20059;-81
2021/12/15 22:26:31;;;;;;;8.18;7.57;;;;;;;7.15;90.75;101530.94;10498135;28;20065;-81
2021/12/15 22:31:36;;;;;;;7.63;7.03;;;;;;;7.20;89.99;101535.31;10472223;28;20063;-80
2021/12/15 22:36:37;;;;;;;7.68;7.07;;;;;;;7.17;90.46;101537.03;10471287;28;20055;-81
2021/12/15 22:41:39;;;;;;;6.47;5.97;;;;;;;7.25;89.55;101545.81;10487377;28;20493;-80
2021/12/15 22:46:41;;;;;;;5.65;5.25;;;;;;;7.33;88.44;101542.38;10483114;28;20052;-81
2021/12/15 22:51:43;;;;;;;6.78;6.28;;;;;;;7.10;90.06;101545.72;10506097;28;20070;-80
2021/12/15 22:56:47;;;;;;;6.35;5.85;;;;;;;7.12;89.89;101550.09;10486517;28;20053;-80
2021/12/15 23:01:58;;;;;;;6.30;5.80;;;;;;;7.19;89.44;101545.78;10486057;28;20079;-80
2021/12/15 23:07:10;;;;;;;6.32;5.82;;;;;;;7.10;89.38;101543.97;10469357;28;20049;-81
2021/12/15 23:12:14;;;;;;;5.22;4.82;;;;;;;7.40;86.95;101545.03;10485635;28;20036;-81
2021/12/15 23:17:24;;;;;;;5.53;5.13;;;;;;;7.21;87.96;101538.81;10492136;28;20064;-81
2021/12/15 23:22:28;;;;;;;5.93;5.45;;;;;;;7.17;87.80;101530.09;10473927;28;20040;-80
2021/12/15 23:27:29;;;;;;;5.90;5.45;;;;;;;7.25;86.63;101538.81;10471996;28;20071;-79
2021/12/15 23:32:31;;;;;;;4.78;4.43;;;;;;;7.38;85.58;101549.38;10470295;28;20118;-80
2021/12/15 23:37:33;;;;;;;5.00;4.60;;;;;;;7.30;85.73;101550.22;10468586;28;20122;-81
2021/12/15 23:43:00;;;;;;;5.13;4.80;;;;;;;7.25;85.63;101537.97;10467531;28;20087;-81
